Wheeler, Indiana
Current Conditions -  °F | °C
As of 5:56 PM on Friday 24 Oct 2014 (Local Time) from KVPZ Reporting Station
Clear Clear  
Wind Chill: 59°   Ceiling: Unl
Heat Index: 59°   Visibility: 10mi
Dew Point: 47°   Wind: 3mph
Humidity: 64%   Direction: 250°WSW
Pressure: 29.98"   Gusts: NA
Location:  41.51°N, 87.18°W
Report Text: KVPZ 242256Z AUTO 25003KT 10SM CLR 15/08 A2998 RMK AO2 SLP153 T01500083 TSNO
Loading
Personal Weather Stations






























Interactive Weather Map
Tropical Storm Tracking
New forecast layout! Learn more

10-Day Weather Forecast

Advertisements
Track Severe Weather on mobile